sensor_id;sensor_type;location;lat;lon;timestamp;P1;durP1;ratioP1;P2;durP2;ratioP2
47912;SDS011;33676;51.006;17.180;2022-09-25T00:01:28;15.10;;;12.50;;
47912;SDS011;33676;51.006;17.180;2022-09-25T00:03:57;14.50;;;12.90;;
47912;SDS011;33676;51.006;17.180;2022-09-25T00:06:28;16.20;;;13.00;;
47912;SDS011;33676;51.006;17.180;2022-09-25T00:08:58;15.60;;;13.00;;
47912;SDS011;33676;51.006;17.180;2022-09-25T00:11:31;13.20;;;11.80;;
47912;SDS011;33676;51.006;17.180;2022-09-25T00:14:00;13.80;;;12.10;;
47912;SDS011;33676;51.006;17.180;2022-09-25T00:16:30;13.60;;;12.30;;
47912;SDS011;33676;51.006;17.180;2022-09-25T00:19:00;20.50;;;15.10;;
47912;SDS011;33676;51.006;17.180;2022-09-25T00:21:47;14.90;;;13.50;;
47912;SDS011;33676;51.006;17.180;2022-09-25T00:24:20;17.20;;;14.30;;
47912;SDS011;33676;51.006;17.180;2022-09-25T00:26:49;18.70;;;14.60;;
47912;SDS011;33676;51.006;17.180;2022-09-25T00:29:18;17.90;;;14.80;;
47912;SDS011;33676;51.006;17.180;2022-09-25T00:31:49;22.00;;;17.90;;
47912;SDS011;33676;51.006;17.180;2022-09-25T00:34:18;22.10;;;17.10;;
47912;SDS011;33676;51.006;17.180;2022-09-25T00:36:46;20.90;;;17.40;;
47912;SDS011;33676;51.006;17.180;2022-09-25T00:39:14;19.40;;;15.50;;
47912;SDS011;33676;51.006;17.180;2022-09-25T00:41:43;19.40;;;15.70;;
47912;SDS011;33676;51.006;17.180;2022-09-25T00:50:35;15.20;;;13.40;;
47912;SDS011;33676;51.006;17.180;2022-09-25T00:53:17;19.60;;;13.10;;
47912;SDS011;33676;51.006;17.180;2022-09-25T00:55:49;15.40;;;13.90;;
47912;SDS011;33676;51.006;17.180;2022-09-25T00:58:21;18.40;;;14.20;;
47912;SDS011;33676;51.006;17.180;2022-09-25T01:00:52;17.70;;;13.70;;
47912;SDS011;33676;51.006;17.180;2022-09-25T01:03:21;15.80;;;13.40;;
47912;SDS011;33676;51.006;17.180;2022-09-25T01:05:50;14.80;;;12.90;;
47912;SDS011;33676;51.006;17.180;2022-09-25T01:08:22;15.40;;;12.70;;
47912;SDS011;33676;51.006;17.180;2022-09-25T01:10:53;17.60;;;14.00;;
47912;SDS011;33676;51.006;17.180;2022-09-25T01:13:21;15.70;;;13.20;;
47912;SDS011;33676;51.006;17.180;2022-09-25T01:16:03;15.60;;;14.00;;
47912;SDS011;33676;51.006;17.180;2022-09-25T01:28:19;16.70;;;13.80;;
47912;SDS011;33676;51.006;17.180;2022-09-25T01:31:31;15.80;;;13.40;;
47912;SDS011;33676;51.006;17.180;2022-09-25T01:34:20;17.00;;;14.10;;
47912;SDS011;33676;51.006;17.180;2022-09-25T01:37:20;17.90;;;15.40;;
47912;SDS011;33676;51.006;17.180;2022-09-25T01:40:08;18.70;;;13.60;;
47912;SDS011;33676;51.006;17.180;2022-09-25T01:42:47;14.90;;;12.50;;
47912;SDS011;33676;51.006;17.180;2022-09-25T01:45:21;15.20;;;12.60;;
47912;SDS011;33676;51.006;17.180;2022-09-25T01:47:56;16.30;;;13.20;;
47912;SDS011;33676;51.006;17.180;2022-09-25T01:50:39;15.80;;;13.20;;
47912;SDS011;33676;51.006;17.180;2022-09-25T01:53:17;14.50;;;12.80;;
47912;SDS011;33676;51.006;17.180;2022-09-25T01:55:56;14.20;;;12.80;;
47912;SDS011;33676;51.006;17.180;2022-09-25T01:58:40;13.60;;;11.60;;
47912;SDS011;33676;51.006;17.180;2022-09-25T02:01:20;15.10;;;12.10;;
47912;SDS011;33676;51.006;17.180;2022-09-25T02:03:57;14.20;;;12.70;;
47912;SDS011;33676;51.006;17.180;2022-09-25T02:06:31;18.80;;;12.40;;
47912;SDS011;33676;51.006;17.180;2022-09-25T02:09:09;14.90;;;13.50;;
47912;SDS011;33676;51.006;17.180;2022-09-25T02:11:46;16.30;;;14.20;;
47912;SDS011;33676;51.006;17.180;2022-09-25T02:14:24;15.70;;;13.50;;
47912;SDS011;33676;51.006;17.180;2022-09-25T02:17:02;18.00;;;14.30;;
47912;SDS011;33676;51.006;17.180;2022-09-25T02:19:37;16.90;;;14.60;;
47912;SDS011;33676;51.006;17.180;2022-09-25T02:22:25;18.60;;;15.10;;
47912;SDS011;33676;51.006;17.180;2022-09-25T02:25:09;17.50;;;15.60;;
47912;SDS011;33676;51.006;17.180;2022-09-25T02:27:45;17.50;;;15.10;;
47912;SDS011;33676;51.006;17.180;2022-09-25T02:30:13;17.10;;;15.10;;
47912;SDS011;33676;51.006;17.180;2022-09-25T02:32:42;19.50;;;15.30;;
47912;SDS011;33676;51.006;17.180;2022-09-25T02:35:10;19.60;;;15.20;;
47912;SDS011;33676;51.006;17.180;2022-09-25T02:37:38;17.30;;;15.50;;
47912;SDS011;33676;51.006;17.180;2022-09-25T02:40:07;17.50;;;15.70;;
47912;SDS011;33676;51.006;17.180;2022-09-25T02:42:49;20.40;;;16.30;;
47912;SDS011;33676;51.006;17.180;2022-09-25T02:45:45;17.60;;;15.50;;
47912;SDS011;33676;51.006;17.180;2022-09-25T02:48:47;19.00;;;14.70;;
47912;SDS011;33676;51.006;17.180;2022-09-25T02:51:28;16.50;;;14.90;;
47912;SDS011;33676;51.006;17.180;2022-09-25T02:54:15;15.40;;;13.60;;
47912;SDS011;33676;51.006;17.180;2022-09-25T03:02:34;21.90;;;15.80;;
47912;SDS011;33676;51.006;17.180;2022-09-25T03:05:05;41.80;;;25.90;;
47912;SDS011;33676;51.006;17.180;2022-09-25T03:07:37;68.70;;;36.90;;
47912;SDS011;33676;51.006;17.180;2022-09-25T03:10:24;62.70;;;36.30;;
47912;SDS011;33676;51.006;17.180;2022-09-25T03:12:55;46.80;;;27.60;;
47912;SDS011;33676;51.006;17.180;2022-09-25T03:15:23;29.90;;;19.60;;
47912;SDS011;33676;51.006;17.180;2022-09-25T03:17:51;20.10;;;17.30;;
47912;SDS011;33676;51.006;17.180;2022-09-25T03:20:20;21.90;;;15.70;;
47912;SDS011;33676;51.006;17.180;2022-09-25T03:22:48;23.40;;;16.00;;
47912;SDS011;33676;51.006;17.180;2022-09-25T03:25:16;17.70;;;13.90;;
47912;SDS011;33676;51.006;17.180;2022-09-25T03:27:45;17.30;;;14.60;;
47912;SDS011;33676;51.006;17.180;2022-09-25T03:30:14;16.80;;;15.00;;
47912;SDS011;33676;51.006;17.180;2022-09-25T03:32:42;24.30;;;16.60;;
47912;SDS011;33676;51.006;17.180;2022-09-25T03:35:11;22.70;;;17.70;;
47912;SDS011;33676;51.006;17.180;2022-09-25T03:37:39;20.90;;;16.90;;
47912;SDS011;33676;51.006;17.180;2022-09-25T03:40:08;21.60;;;18.10;;
47912;SDS011;33676;51.006;17.180;2022-09-25T03:42:37;19.70;;;17.10;;
47912;SDS011;33676;51.006;17.180;2022-09-25T03:45:06;20.70;;;17.70;;
47912;SDS011;33676;51.006;17.180;2022-09-25T03:47:36;29.00;;;19.90;;
47912;SDS011;33676;51.006;17.180;2022-09-25T03:50:05;21.80;;;18.40;;
47912;SDS011;33676;51.006;17.180;2022-09-25T03:52:35;26.30;;;19.10;;
47912;SDS011;33676;51.006;17.180;2022-09-25T03:55:04;22.30;;;18.40;;
47912;SDS011;33676;51.006;17.180;2022-09-25T03:57:33;25.60;;;19.10;;
47912;SDS011;33676;51.006;17.180;2022-09-25T04:00:01;25.00;;;21.00;;
47912;SDS011;33676;51.006;17.180;2022-09-25T04:02:30;34.60;;;22.30;;
47912;SDS011;33676;51.006;17.180;2022-09-25T04:04:59;27.20;;;22.20;;
47912;SDS011;33676;51.006;17.180;2022-09-25T04:07:27;26.30;;;19.60;;
47912;SDS011;33676;51.006;17.180;2022-09-25T04:09:56;24.70;;;18.90;;
47912;SDS011;33676;51.006;17.180;2022-09-25T04:12:24;25.10;;;20.20;;
47912;SDS011;33676;51.006;17.180;2022-09-25T04:14:53;24.80;;;19.60;;
47912;SDS011;33676;51.006;17.180;2022-09-25T04:17:21;19.90;;;15.90;;
47912;SDS011;33676;51.006;17.180;2022-09-25T04:19:50;19.30;;;17.20;;
47912;SDS011;33676;51.006;17.180;2022-09-25T04:22:19;19.00;;;17.00;;
47912;SDS011;33676;51.006;17.180;2022-09-25T04:24:47;20.80;;;17.30;;
47912;SDS011;33676;51.006;17.180;2022-09-25T04:27:18;23.30;;;17.10;;
47912;SDS011;33676;51.006;17.180;2022-09-25T04:29:49;23.40;;;19.10;;
47912;SDS011;33676;51.006;17.180;2022-09-25T04:32:17;22.20;;;17.80;;
47912;SDS011;33676;51.006;17.180;2022-09-25T04:35:05;22.10;;;18.20;;
47912;SDS011;33676;51.006;17.180;2022-09-25T04:37:36;23.80;;;17.70;;
47912;SDS011;33676;51.006;17.180;2022-09-25T04:40:04;21.20;;;16.90;;
47912;SDS011;33676;51.006;17.180;2022-09-25T04:42:33;24.00;;;17.40;;
47912;SDS011;33676;51.006;17.180;2022-09-25T04:45:02;49.40;;;35.40;;
47912;SDS011;33676;51.006;17.180;2022-09-25T04:47:30;33.10;;;25.10;;
47912;SDS011;33676;51.006;17.180;2022-09-25T04:49:58;23.00;;;18.20;;
47912;SDS011;33676;51.006;17.180;2022-09-25T04:52:27;22.70;;;18.80;;
47912;SDS011;33676;51.006;17.180;2022-09-25T04:54:57;21.50;;;18.60;;
47912;SDS011;33676;51.006;17.180;2022-09-25T04:57:25;19.70;;;17.40;;
47912;SDS011;33676;51.006;17.180;2022-09-25T05:00:14;20.20;;;17.90;;
47912;SDS011;33676;51.006;17.180;2022-09-25T05:02:46;20.90;;;17.70;;
47912;SDS011;33676;51.006;17.180;2022-09-25T05:05:18;20.70;;;16.70;;
47912;SDS011;33676;51.006;17.180;2022-09-25T05:07:54;21.80;;;19.10;;
47912;SDS011;33676;51.006;17.180;2022-09-25T05:10:26;18.20;;;16.30;;
47912;SDS011;33676;51.006;17.180;2022-09-25T05:13:00;18.40;;;15.40;;
47912;SDS011;33676;51.006;17.180;2022-09-25T05:15:31;23.70;;;18.30;;
47912;SDS011;33676;51.006;17.180;2022-09-25T05:18:06;22.30;;;19.70;;
47912;SDS011;33676;51.006;17.180;2022-09-25T05:20:47;23.00;;;19.60;;
47912;SDS011;33676;51.006;17.180;2022-09-25T05:23:16;20.20;;;17.90;;
47912;SDS011;33676;51.006;17.180;2022-09-25T05:25:54;20.60;;;18.40;;
47912;SDS011;33676;51.006;17.180;2022-09-25T05:28:25;18.30;;;16.10;;
47912;SDS011;33676;51.006;17.180;2022-09-25T05:30:53;18.20;;;15.40;;
47912;SDS011;33676;51.006;17.180;2022-09-25T05:33:22;19.40;;;15.80;;
47912;SDS011;33676;51.006;17.180;2022-09-25T05:35:50;22.00;;;17.90;;
47912;SDS011;33676;51.006;17.180;2022-09-25T05:38:18;22.00;;;18.50;;
47912;SDS011;33676;51.006;17.180;2022-09-25T05:40:47;19.60;;;16.90;;
47912;SDS011;33676;51.006;17.180;2022-09-25T05:43:15;19.70;;;17.70;;
47912;SDS011;33676;51.006;17.180;2022-09-25T05:45:52;18.80;;;16.50;;
47912;SDS011;33676;51.006;17.180;2022-09-25T05:48:21;17.90;;;15.70;;
47912;SDS011;33676;51.006;17.180;2022-09-25T05:50:55;21.50;;;16.40;;
47912;SDS011;33676;51.006;17.180;2022-09-25T05:53:24;17.00;;;15.20;;
47912;SDS011;33676;51.006;17.180;2022-09-25T05:55:59;21.10;;;17.20;;
47912;SDS011;33676;51.006;17.180;2022-09-25T05:58:30;17.80;;;15.90;;
47912;SDS011;33676;51.006;17.180;2022-09-25T06:01:04;21.40;;;16.50;;
47912;SDS011;33676;51.006;17.180;2022-09-25T06:03:33;19.30;;;16.80;;
47912;SDS011;33676;51.006;17.180;2022-09-25T06:06:03;20.70;;;18.10;;
47912;SDS011;33676;51.006;17.180;2022-09-25T06:08:32;21.80;;;17.90;;
47912;SDS011;33676;51.006;17.180;2022-09-25T06:11:03;20.40;;;17.80;;
47912;SDS011;33676;51.006;17.180;2022-09-25T06:13:32;18.90;;;16.90;;
47912;SDS011;33676;51.006;17.180;2022-09-25T06:16:02;20.40;;;18.30;;
47912;SDS011;33676;51.006;17.180;2022-09-25T06:18:32;25.80;;;20.50;;
47912;SDS011;33676;51.006;17.180;2022-09-25T06:21:03;21.00;;;18.80;;
47912;SDS011;33676;51.006;17.180;2022-09-25T06:23:32;21.40;;;19.20;;
47912;SDS011;33676;51.006;17.180;2022-09-25T06:26:02;22.40;;;19.70;;
47912;SDS011;33676;51.006;17.180;2022-09-25T06:28:33;24.60;;;19.70;;
47912;SDS011;33676;51.006;17.180;2022-09-25T06:31:03;22.20;;;19.80;;
47912;SDS011;33676;51.006;17.180;2022-09-25T06:33:32;21.00;;;18.20;;
47912;SDS011;33676;51.006;17.180;2022-09-25T06:36:01;20.20;;;18.00;;
47912;SDS011;33676;51.006;17.180;2022-09-25T06:38:32;21.10;;;18.80;;
47912;SDS011;33676;51.006;17.180;2022-09-25T06:41:01;23.10;;;19.40;;
47912;SDS011;33676;51.006;17.180;2022-09-25T06:43:29;23.90;;;19.50;;
47912;SDS011;33676;51.006;17.180;2022-09-25T06:45:59;23.40;;;18.90;;
47912;SDS011;33676;51.006;17.180;2022-09-25T06:48:30;22.00;;;18.80;;
47912;SDS011;33676;51.006;17.180;2022-09-25T06:50:59;22.60;;;19.40;;
47912;SDS011;33676;51.006;17.180;2022-09-25T06:53:27;20.80;;;18.60;;
47912;SDS011;33676;51.006;17.180;2022-09-25T06:55:57;23.20;;;20.60;;
47912;SDS011;33676;51.006;17.180;2022-09-25T06:58:27;20.70;;;18.60;;
47912;SDS011;33676;51.006;17.180;2022-09-25T07:00:58;22.50;;;20.20;;
47912;SDS011;33676;51.006;17.180;2022-09-25T07:03:26;22.30;;;19.10;;
47912;SDS011;33676;51.006;17.180;2022-09-25T07:06:20;20.30;;;18.00;;
47912;SDS011;33676;51.006;17.180;2022-09-25T07:08:50;20.90;;;18.30;;
47912;SDS011;33676;51.006;17.180;2022-09-25T07:11:25;18.80;;;16.90;;
47912;SDS011;33676;51.006;17.180;2022-09-25T07:13:55;20.90;;;18.40;;
47912;SDS011;33676;51.006;17.180;2022-09-25T07:16:25;23.50;;;19.50;;
47912;SDS011;33676;51.006;17.180;2022-09-25T07:18:56;21.60;;;19.30;;
47912;SDS011;33676;51.006;17.180;2022-09-25T07:21:27;21.80;;;18.40;;
47912;SDS011;33676;51.006;17.180;2022-09-25T07:23:57;21.60;;;19.40;;
47912;SDS011;33676;51.006;17.180;2022-09-25T07:26:27;18.80;;;16.90;;
47912;SDS011;33676;51.006;17.180;2022-09-25T07:29:00;20.90;;;18.70;;
47912;SDS011;33676;51.006;17.180;2022-09-25T07:31:32;21.40;;;19.20;;
47912;SDS011;33676;51.006;17.180;2022-09-25T07:34:02;21.90;;;19.40;;
47912;SDS011;33676;51.006;17.180;2022-09-25T07:36:37;23.20;;;20.10;;
47912;SDS011;33676;51.006;17.180;2022-09-25T07:39:08;19.10;;;17.20;;
47912;SDS011;33676;51.006;17.180;2022-09-25T07:41:43;21.10;;;18.90;;
47912;SDS011;33676;51.006;17.180;2022-09-25T07:44:11;19.90;;;17.40;;
47912;SDS011;33676;51.006;17.180;2022-09-25T07:46:59;20.90;;;16.00;;
47912;SDS011;33676;51.006;17.180;2022-09-25T07:49:30;18.20;;;16.30;;
47912;SDS011;33676;51.006;17.180;2022-09-25T07:52:00;20.40;;;15.00;;
47912;SDS011;33676;51.006;17.180;2022-09-25T07:54:31;20.30;;;14.70;;
47912;SDS011;33676;51.006;17.180;2022-09-25T07:57:00;18.00;;;15.90;;
47912;SDS011;33676;51.006;17.180;2022-09-25T07:59:29;17.90;;;15.90;;
47912;SDS011;33676;51.006;17.180;2022-09-25T08:01:57;17.60;;;15.80;;
47912;SDS011;33676;51.006;17.180;2022-09-25T08:04:26;19.00;;;15.80;;
47912;SDS011;33676;51.006;17.180;2022-09-25T08:06:55;19.00;;;16.60;;
47912;SDS011;33676;51.006;17.180;2022-09-25T08:09:26;15.50;;;13.90;;
47912;SDS011;33676;51.006;17.180;2022-09-25T08:11:55;18.50;;;14.20;;
47912;SDS011;33676;51.006;17.180;2022-09-25T08:14:23;15.60;;;14.10;;
47912;SDS011;33676;51.006;17.180;2022-09-25T08:16:54;14.80;;;13.30;;
47912;SDS011;33676;51.006;17.180;2022-09-25T08:19:23;13.80;;;12.50;;
47912;SDS011;33676;51.006;17.180;2022-09-25T08:21:51;24.00;;;19.10;;
47912;SDS011;33676;51.006;17.180;2022-09-25T08:24:19;15.60;;;13.50;;
47912;SDS011;33676;51.006;17.180;2022-09-25T08:26:48;12.70;;;10.90;;
47912;SDS011;33676;51.006;17.180;2022-09-25T08:29:17;15.20;;;12.50;;
47912;SDS011;33676;51.006;17.180;2022-09-25T08:31:45;14.20;;;12.70;;
47912;SDS011;33676;51.006;17.180;2022-09-25T08:34:14;16.40;;;13.00;;
47912;SDS011;33676;51.006;17.180;2022-09-25T08:37:03;15.90;;;13.00;;
47912;SDS011;33676;51.006;17.180;2022-09-25T08:39:32;14.20;;;12.70;;
47912;SDS011;33676;51.006;17.180;2022-09-25T08:42:00;16.10;;;14.20;;
47912;SDS011;33676;51.006;17.180;2022-09-25T09:05:36;11.60;;;9.70;;
47912;SDS011;33676;51.006;17.180;2022-09-25T09:08:14;11.00;;;10.00;;
47912;SDS011;33676;51.006;17.180;2022-09-25T09:10:56;12.10;;;9.60;;
47912;SDS011;33676;51.006;17.180;2022-09-25T09:19:17;10.90;;;10.00;;
47912;SDS011;33676;51.006;17.180;2022-09-25T09:22:05;11.50;;;9.20;;
47912;SDS011;33676;51.006;17.180;2022-09-25T09:25:15;10.90;;;9.70;;
47912;SDS011;33676;51.006;17.180;2022-09-25T09:36:42;7.80;;;7.10;;
47912;SDS011;33676;51.006;17.180;2022-09-25T09:45:02;7.90;;;7.20;;
47912;SDS011;33676;51.006;17.180;2022-09-25T09:47:58;7.60;;;6.90;;
47912;SDS011;33676;51.006;17.180;2022-09-25T09:50:52;9.60;;;6.30;;
47912;SDS011;33676;51.006;17.180;2022-09-25T09:53:53;6.00;;;5.50;;
47912;SDS011;33676;51.006;17.180;2022-09-25T09:59:04;5.80;;;4.90;;
47912;SDS011;33676;51.006;17.180;2022-09-25T10:01:39;4.40;;;4.10;;
47912;SDS011;33676;51.006;17.180;2022-09-25T10:04:21;5.40;;;4.80;;
47912;SDS011;33676;51.006;17.180;2022-09-25T10:06:57;5.70;;;4.30;;
47912;SDS011;33676;51.006;17.180;2022-09-25T10:09:28;4.90;;;4.30;;
47912;SDS011;33676;51.006;17.180;2022-09-25T10:12:12;3.70;;;3.30;;
47912;SDS011;33676;51.006;17.180;2022-09-25T10:14:53;4.60;;;3.70;;
47912;SDS011;33676;51.006;17.180;2022-09-25T10:17:23;4.80;;;4.30;;
47912;SDS011;33676;51.006;17.180;2022-09-25T10:19:57;4.80;;;4.00;;
47912;SDS011;33676;51.006;17.180;2022-09-25T10:22:38;4.60;;;4.20;;
47912;SDS011;33676;51.006;17.180;2022-09-25T10:25:09;5.20;;;4.30;;
47912;SDS011;33676;51.006;17.180;2022-09-25T10:27:40;5.10;;;4.60;;
47912;SDS011;33676;51.006;17.180;2022-09-25T10:30:18;5.20;;;4.80;;
47912;SDS011;33676;51.006;17.180;2022-09-25T10:33:12;3.90;;;3.60;;
47912;SDS011;33676;51.006;17.180;2022-09-25T10:35:48;3.60;;;3.40;;
47912;SDS011;33676;51.006;17.180;2022-09-25T10:41:25;4.50;;;4.10;;
47912;SDS011;33676;51.006;17.180;2022-09-25T10:44:00;4.00;;;3.50;;
47912;SDS011;33676;51.006;17.180;2022-09-25T10:46:31;3.40;;;3.20;;
47912;SDS011;33676;51.006;17.180;2022-09-25T10:49:23;2.60;;;2.40;;
47912;SDS011;33676;51.006;17.180;2022-09-25T10:52:16;2.90;;;2.70;;
47912;SDS011;33676;51.006;17.180;2022-09-25T10:54:46;3.50;;;3.20;;
47912;SDS011;33676;51.006;17.180;2022-09-25T11:00:08;2.90;;;2.70;;
47912;SDS011;33676;51.006;17.180;2022-09-25T11:02:50;3.40;;;3.00;;
47912;SDS011;33676;51.006;17.180;2022-09-25T11:05:28;3.10;;;2.90;;
47912;SDS011;33676;51.006;17.180;2022-09-25T11:10:35;2.90;;;2.70;;
47912;SDS011;33676;51.006;17.180;2022-09-25T11:13:22;3.60;;;3.30;;
47912;SDS011;33676;51.006;17.180;2022-09-25T11:15:59;4.00;;;3.80;;
47912;SDS011;33676;51.006;17.180;2022-09-25T11:18:42;3.70;;;3.40;;
47912;SDS011;33676;51.006;17.180;2022-09-25T11:21:43;8.80;;;3.90;;
47912;SDS011;33676;51.006;17.180;2022-09-25T11:24:38;4.90;;;3.80;;
47912;SDS011;33676;51.006;17.180;2022-09-25T11:27:37;3.80;;;3.50;;
47912;SDS011;33676;51.006;17.180;2022-09-25T11:30:42;3.30;;;3.10;;
47912;SDS011;33676;51.006;17.180;2022-09-25T11:33:25;3.70;;;3.30;;
47912;SDS011;33676;51.006;17.180;2022-09-25T11:36:06;3.20;;;3.00;;
47912;SDS011;33676;51.006;17.180;2022-09-25T11:38:52;4.20;;;2.80;;
47912;SDS011;33676;51.006;17.180;2022-09-25T11:41:55;3.60;;;3.40;;
47912;SDS011;33676;51.006;17.180;2022-09-25T11:44:47;2.80;;;2.60;;
47912;SDS011;33676;51.006;17.180;2022-09-25T11:48:25;3.60;;;3.40;;
47912;SDS011;33676;51.006;17.180;2022-09-25T11:54:23;4.00;;;3.70;;
47912;SDS011;33676;51.006;17.180;2022-09-25T11:57:40;4.80;;;4.10;;
47912;SDS011;33676;51.006;17.180;2022-09-25T12:14:31;3.10;;;2.90;;
47912;SDS011;33676;51.006;17.180;2022-09-25T12:17:30;2.40;;;2.30;;
47912;SDS011;33676;51.006;17.180;2022-09-25T12:20:36;2.90;;;2.70;;
47912;SDS011;33676;51.006;17.180;2022-09-25T12:23:30;3.80;;;3.00;;
47912;SDS011;33676;51.006;17.180;2022-09-25T12:26:22;2.80;;;2.70;;
47912;SDS011;33676;51.006;17.180;2022-09-25T12:31:52;2.50;;;2.40;;
47912;SDS011;33676;51.006;17.180;2022-09-25T12:39:57;2.80;;;2.60;;
47912;SDS011;33676;51.006;17.180;2022-09-25T12:42:38;3.30;;;3.00;;
47912;SDS011;33676;51.006;17.180;2022-09-25T12:45:47;2.60;;;2.50;;
47912;SDS011;33676;51.006;17.180;2022-09-25T12:48:30;2.90;;;2.80;;
47912;SDS011;33676;51.006;17.180;2022-09-25T12:51:27;2.50;;;2.30;;
47912;SDS011;33676;51.006;17.180;2022-09-25T12:54:14;2.10;;;2.10;;
47912;SDS011;33676;51.006;17.180;2022-09-25T12:57:03;2.30;;;2.20;;
47912;SDS011;33676;51.006;17.180;2022-09-25T12:59:53;2.40;;;2.30;;
47912;SDS011;33676;51.006;17.180;2022-09-25T13:02:51;2.80;;;2.70;;
47912;SDS011;33676;51.006;17.180;2022-09-25T13:05:37;8.50;;;3.40;;
47912;SDS011;33676;51.006;17.180;2022-09-25T13:08:30;2.90;;;2.50;;
47912;SDS011;33676;51.006;17.180;2022-09-25T13:13:48;2.20;;;2.10;;
47912;SDS011;33676;51.006;17.180;2022-09-25T13:19:20;2.10;;;2.00;;
47912;SDS011;33676;51.006;17.180;2022-09-25T13:22:03;2.30;;;2.20;;
47912;SDS011;33676;51.006;17.180;2022-09-25T13:24:48;2.90;;;2.70;;
47912;SDS011;33676;51.006;17.180;2022-09-25T13:27:22;2.30;;;2.20;;
47912;SDS011;33676;51.006;17.180;2022-09-25T13:29:54;3.00;;;2.80;;
47912;SDS011;33676;51.006;17.180;2022-09-25T13:32:27;2.80;;;2.70;;
47912;SDS011;33676;51.006;17.180;2022-09-25T13:35:03;2.80;;;2.60;;
47912;SDS011;33676;51.006;17.180;2022-09-25T13:37:35;3.10;;;2.90;;
47912;SDS011;33676;51.006;17.180;2022-09-25T13:40:25;2.90;;;2.60;;
47912;SDS011;33676;51.006;17.180;2022-09-25T13:43:21;5.50;;;3.10;;
47912;SDS011;33676;51.006;17.180;2022-09-25T13:48:49;2.80;;;2.60;;
47912;SDS011;33676;51.006;17.180;2022-09-25T14:01:51;2.80;;;2.70;;
47912;SDS011;33676;51.006;17.180;2022-09-25T14:04:26;2.50;;;2.40;;
47912;SDS011;33676;51.006;17.180;2022-09-25T14:07:20;2.90;;;2.60;;
47912;SDS011;33676;51.006;17.180;2022-09-25T14:09:53;3.40;;;3.20;;
47912;SDS011;33676;51.006;17.180;2022-09-25T14:12:47;3.10;;;2.90;;
47912;SDS011;33676;51.006;17.180;2022-09-25T14:15:36;2.80;;;2.70;;
47912;SDS011;33676;51.006;17.180;2022-09-25T14:18:36;3.50;;;3.20;;
47912;SDS011;33676;51.006;17.180;2022-09-25T14:21:08;2.80;;;2.60;;
47912;SDS011;33676;51.006;17.180;2022-09-25T14:23:48;2.80;;;2.60;;
47912;SDS011;33676;51.006;17.180;2022-09-25T14:26:21;4.40;;;2.50;;
47912;SDS011;33676;51.006;17.180;2022-09-25T14:28:54;2.40;;;2.30;;
47912;SDS011;33676;51.006;17.180;2022-09-25T14:34:32;2.70;;;2.60;;
47912;SDS011;33676;51.006;17.180;2022-09-25T14:40:31;2.90;;;2.80;;
47912;SDS011;33676;51.006;17.180;2022-09-25T14:43:18;2.90;;;2.60;;
47912;SDS011;33676;51.006;17.180;2022-09-25T14:48:54;2.70;;;2.60;;
47912;SDS011;33676;51.006;17.180;2022-09-25T14:51:35;2.40;;;2.30;;
47912;SDS011;33676;51.006;17.180;2022-09-25T14:54:09;2.50;;;2.40;;
47912;SDS011;33676;51.006;17.180;2022-09-25T14:56:44;2.10;;;2.00;;
47912;SDS011;33676;51.006;17.180;2022-09-25T14:59:22;2.70;;;2.50;;
47912;SDS011;33676;51.006;17.180;2022-09-25T15:01:59;3.90;;;2.90;;
47912;SDS011;33676;51.006;17.180;2022-09-25T15:04:33;3.00;;;2.80;;
47912;SDS011;33676;51.006;17.180;2022-09-25T15:09:43;3.50;;;2.60;;
47912;SDS011;33676;51.006;17.180;2022-09-25T15:12:20;3.90;;;2.90;;
47912;SDS011;33676;51.006;17.180;2022-09-25T15:15:09;3.90;;;2.60;;
47912;SDS011;33676;51.006;17.180;2022-09-25T15:17:45;2.60;;;2.40;;
47912;SDS011;33676;51.006;17.180;2022-09-25T15:20:22;7.80;;;4.50;;
47912;SDS011;33676;51.006;17.180;2022-09-25T15:25:33;4.60;;;4.20;;
47912;SDS011;33676;51.006;17.180;2022-09-25T15:28:06;3.20;;;3.00;;
47912;SDS011;33676;51.006;17.180;2022-09-25T15:30:37;3.80;;;3.10;;
47912;SDS011;33676;51.006;17.180;2022-09-25T15:33:25;2.90;;;2.70;;
47912;SDS011;33676;51.006;17.180;2022-09-25T15:35:58;3.20;;;3.00;;
47912;SDS011;33676;51.006;17.180;2022-09-25T15:38:30;8.40;;;3.50;;
47912;SDS011;33676;51.006;17.180;2022-09-25T15:41:01;10.30;;;3.70;;
47912;SDS011;33676;51.006;17.180;2022-09-25T15:43:30;8.00;;;4.80;;
47912;SDS011;33676;51.006;17.180;2022-09-25T15:48:39;2.90;;;2.70;;
47912;SDS011;33676;51.006;17.180;2022-09-25T15:51:21;5.50;;;3.40;;
47912;SDS011;33676;51.006;17.180;2022-09-25T15:56:36;5.80;;;3.70;;
47912;SDS011;33676;51.006;17.180;2022-09-25T15:59:30;10.40;;;3.80;;
47912;SDS011;33676;51.006;17.180;2022-09-25T16:02:14;7.90;;;3.80;;
47912;SDS011;33676;51.006;17.180;2022-09-25T16:05:08;3.80;;;3.50;;
47912;SDS011;33676;51.006;17.180;2022-09-25T16:07:39;3.20;;;2.70;;
47912;SDS011;33676;51.006;17.180;2022-09-25T16:17:59;3.80;;;3.50;;
47912;SDS011;33676;51.006;17.180;2022-09-25T16:20:35;7.10;;;3.30;;
47912;SDS011;33676;51.006;17.180;2022-09-25T16:23:06;3.70;;;3.30;;
47912;SDS011;33676;51.006;17.180;2022-09-25T16:25:47;4.20;;;3.10;;
47912;SDS011;33676;51.006;17.180;2022-09-25T16:28:21;3.40;;;3.10;;
47912;SDS011;33676;51.006;17.180;2022-09-25T16:31:05;4.30;;;3.00;;
47912;SDS011;33676;51.006;17.180;2022-09-25T16:36:16;7.40;;;3.80;;
47912;SDS011;33676;51.006;17.180;2022-09-25T16:41:39;7.50;;;2.90;;
47912;SDS011;33676;51.006;17.180;2022-09-25T16:49:34;3.30;;;3.10;;
47912;SDS011;33676;51.006;17.180;2022-09-25T16:52:04;5.00;;;3.00;;
47912;SDS011;33676;51.006;17.180;2022-09-25T16:54:36;4.40;;;3.90;;
47912;SDS011;33676;51.006;17.180;2022-09-25T16:57:05;7.30;;;4.40;;
47912;SDS011;33676;51.006;17.180;2022-09-25T16:59:33;5.20;;;4.30;;
47912;SDS011;33676;51.006;17.180;2022-09-25T17:02:07;5.60;;;4.10;;
47912;SDS011;33676;51.006;17.180;2022-09-25T17:04:48;5.90;;;3.90;;
47912;SDS011;33676;51.006;17.180;2022-09-25T17:07:17;9.10;;;5.30;;
47912;SDS011;33676;51.006;17.180;2022-09-25T17:09:46;7.90;;;4.40;;
47912;SDS011;33676;51.006;17.180;2022-09-25T17:12:18;9.90;;;4.50;;
47912;SDS011;33676;51.006;17.180;2022-09-25T17:14:50;5.40;;;4.50;;
47912;SDS011;33676;51.006;17.180;2022-09-25T17:17:19;10.60;;;5.00;;
47912;SDS011;33676;51.006;17.180;2022-09-25T17:19:51;11.40;;;5.20;;
47912;SDS011;33676;51.006;17.180;2022-09-25T17:22:19;6.90;;;5.60;;
47912;SDS011;33676;51.006;17.180;2022-09-25T17:24:47;11.60;;;5.30;;
47912;SDS011;33676;51.006;17.180;2022-09-25T17:27:16;8.00;;;4.90;;
47912;SDS011;33676;51.006;17.180;2022-09-25T17:29:44;12.40;;;5.40;;
47912;SDS011;33676;51.006;17.180;2022-09-25T17:32:15;5.10;;;4.60;;
47912;SDS011;33676;51.006;17.180;2022-09-25T17:34:44;8.60;;;5.80;;
47912;SDS011;33676;51.006;17.180;2022-09-25T17:37:13;6.20;;;5.60;;
47912;SDS011;33676;51.006;17.180;2022-09-25T17:39:42;6.90;;;6.20;;
47912;SDS011;33676;51.006;17.180;2022-09-25T17:42:11;7.30;;;6.60;;
47912;SDS011;33676;51.006;17.180;2022-09-25T17:44:39;12.00;;;10.60;;
47912;SDS011;33676;51.006;17.180;2022-09-25T17:47:09;15.40;;;8.30;;